Terminal Aerodrome Forecast
Issued by NWS

Home | Current Version | Previous Version | Graphics & Text | Print | Product List | Glossary On
Versions: 1 2 3 4 5 6 7 8 9 10 11 12 13 14 15 16 17 18 19 20 21 22 23 24
000
FTUS43 KMPX 242300 RRA
TAFAXN
TAF
KAXN 242341Z 2500/2524 32016G24KT P6SM BKN012
     FM250300 31011KT P6SM FEW050
     FM251500 23004KT P6SM OVC020
     FM252100 VRB03KT P6SM OVC012=

USA.gov is the U.S. government's official web portal to all federal, state and local government web resources and services.